Terminal Aerodrome Forecast
Issued by NWS Twin Cities, MN

Home | Current Version | Previous Version | Text Only | Print | Product List | Glossary On
Versions: 1 2 3 4 5 6 7 8 9 10 11 12 13 14 15 16 17 18 19 20
563
FTUS43 KMPX 111720
TAFEAU
TAF
KEAU 111720Z 1118/1218 27006KT 5SM BR OVC015
      TEMPO 1118/1121 2SM -SHSN BR SCT008 OVC015
     FM112100 33013G22KT P6SM OVC015
     FM120300 33012G20KT P6SM SCT025
     FM120700 31008KT P6SM SKC
     FM121400 31006KT P6SM SCT100=

USA.gov is the U.S. government's official web portal to all federal, state and local government web resources and services.